Akeley, Minnesota
Current Conditions -  °F | °C
As of 8:35 PM on Friday 19 Dec 2014 (Local Time) from KY49 Reporting Station
Light Snow Light Snow  
Wind Chill: 17°   Ceiling: 800
Heat Index: 24°   Visibility: 2.5mi
Dew Point: 23°   Wind: 6mph
Humidity: 94%   Direction: 150°SSE
Pressure: 30.06"   Gusts: NA
Location:  47°N, 94.73°W
Report Text: KY49 200235Z AUTO 15005KT 2 1/2SM -SN OVC008 M04/M05 A3006 RMK AO2 T10421050
Loading
Personal Weather Stations






























Interactive Weather Map New forecast layout! Learn more

10-Day Weather Forecast

Advertisements
Track Severe Weather on mobile